Blue Grass Airport Lexington US
ICAO: KLEX
IATA: LEX
Category: Large
Scheduled Services: Yes

Elevation: 979 ft
TransAlt. 18000 ft.

Airport Communications:
LEXINGTON APP/DEP:120.15
ATIS:126.3
CLNC DEL:132.35
GND:121.9
LEXINGTON TWR:119.1
UNICOM:122.95

KLEX Zoom In..

Runways:

(A) RW 04 length 7004 ft width 150 ft
ILS 110.10 / hdg 46

(B) RW 09 length 4000 ft width 75 ft
---- / hdg 87

(C) RW 22 length 7004 ft width 150 ft
ILS 111.75 / hdg 226

(D) RW 27 length 4000 ft width 75 ft
---- / hdg 267

Location; KLEX
Day. 22 / Time. 23.54 Zulu
* Altimeter: 29.66
* Temperature: 15° c. 59°f.
* Wind from: 160° Speed 21 kn with Gusts up to 34 kn.
Dewpoint: 11° c.
Visibility: 10 Statute Miles.
Clouds: Overcast 3700 ft.

KLEX 222354Z 16021G34KT 10SM OVC037 15/11 A2966 RMK AO2 PK WND 19034/2346 SLP040 60001 T01500106 10150 20133 58026


Wind From 160°
Speed 21 kn.

YouTube Music Video
 
jpsmedia.com for Web Design  worldairports.se 2018   terms of use